Terminal Aerodrome Forecast
Issued by NWS

Home | Current Version | Previous Version | Text Only | Print | Product List | Glossary On
Versions: 1 2 3 4 5 6 7 8 9 10 11 12 13 14 15 16 17 18 19 20 21 22
000
FTUS45 KBOU 271128
TAFAPA
TAF
KAPA 271128Z 2712/2812 17011KT P6SM SCT200
     FM271500 24010KT P6SM SCT120 BKN200
     FM271900 27013KT P6SM SCT120 SCT200
     FM272200 29014G22KT P6SM FEW120 SCT200
     FM280200 36010KT P6SM FEW200
     FM280600 VRB06KT P6SM FEW200=

USA.gov is the U.S. government's official web portal to all federal, state and local government web resources and services.